Airfield :







YOU CAN JOIN US ON...

 
LOGIN :

Register | Disclaimer

   EN    FR    IT 

 









Legend :    VFR   Marginal VFR   IFR   Intensive IFR   Very Intensive IFR
Visi :
Ceiling :
>= 8 km
>= 3000ft
5 to 8 km
1000 to 3000 ft
1500m to 5 km
500 to 1000 ft
800 to 1500m
200 to 500 ft
< 800m
< 200 ft
Symbols :   Thunderstorms  Fog  Heavy snow  Heavy precipitations  Wind > 20 kt






- Airport Elevation : 16 ft
- IATA code : FDF


TFFF - Aime Cesaire

CURRENT METAR :
  • 290630Z AUTO 09011G23KT 9999 SCT025 BKN031 BKN041 25/22 Q1014 TEMPO 4000 SHRA BKN015 SCT018TCU

EXPIRED METARs :
  • 290600Z AUTO 09007KT 9999 SCT024 BKN034 BKN047 25/22 Q1014 TEMPO 4000 SHRA BKN015 SCT018TCU
  • 290530Z AUTO 08007KT 9999 FEW024/// SCT033/// BKN054/// ///TCU 25/22 Q1014 TEMPO 4000 SHRA
  • 290500Z AUTO 09010KT 9999 BKN049/// BKN062/// ///TCU 25/22 Q1014 TEMPO 4000 SHRA
  • 290430Z AUTO 09009KT 9999 FEW044 BKN052 OVC062 25/22 Q1015 TEMPO 4000 SHRA BKN015 SCT018TCU
  • 290400Z AUTO 09009KT 9999 SCT044 BKN054 25/22 Q1015 TEMPO 4000 SHRA BKN015 SCT018TCU

TAF TAF TFFF
Valid from the 29 at 06:00 until the 30 at 06:00 UTC


290400Z 2906/3006 07010KT 9999 SCT030
TEMPO 2906/2910 4000 SHRA BKN015 SCT018TCU
TEMPO 2914/3003 08015G30KT



MET'MAP, your aeronautical weather chart ! - Copyright ORBIFLY December 2007 - Disclaimer

ORBIFLY MET'MAP TEAM :

Programming & Development : Alexandra Zaïnal
Concept & original design : Baudouin d'Aumeries
Assistance for programming : Marc-Olivier Méhu
Technical & hardware support : Manuel Goepfert

Contact : metmap@orbifly.com




SOURCES & CREDITS :

   NOAA